Time;durP1;ratioP1;P1;durP2;ratioP2;P2;SDS_P1;SDS_P2;PMS_P1;PMS_P2;Temp;Humidity;BMP_temperature;BMP_pressure;BME280_temperature;BME280_humidity;BME280_pressure;Samples;Min_cycle;Max_cycle;Signal;HPM_P1;HPM_P2
2022/04/24 00:01:46;;;;;;;1.40;1.30;;;10.20;73.10;9.60;96338.00;;;;5118094;28;20245;-76
2022/04/24 00:04:15;;;;;;;2.30;1.80;;;10.30;73.70;9.60;96330.00;;;;5117424;28;20209;-75
2022/04/24 00:06:42;;;;;;;1.63;1.53;;;10.30;74.00;9.50;96328.00;;;;5117109;28;20302;-76
2022/04/24 00:09:09;;;;;;;2.03;1.93;;;10.30;74.10;9.60;96330.00;;;;5099221;28;20202;-75
2022/04/24 00:11:35;;;;;;;3.63;1.93;;;10.30;74.10;9.50;96317.00;;;;5117067;28;20216;-76
2022/04/24 00:14:07;;;;;;;2.80;2.60;;;10.30;74.00;9.50;96319.00;;;;5120502;28;20210;-76
2022/04/24 00:16:36;;;;;;;1.73;1.63;;;10.20;73.70;9.50;96328.00;;;;5099010;28;20190;-76
2022/04/24 00:19:03;;;;;;;1.53;1.53;;;10.20;74.20;9.50;96322.00;;;;5098871;28;20657;-75
2022/04/24 00:21:33;;;;;;;1.77;1.67;;;10.20;74.50;9.50;96315.00;;;;5117491;28;20209;-76
2022/04/24 00:24:00;;;;;;;1.83;1.73;;;10.20;74.90;9.60;96315.00;;;;5117145;28;20218;-76
2022/04/24 00:26:27;;;;;;;1.20;1.20;;;10.20;75.30;9.50;96311.00;;;;5116808;28;20221;-76
2022/04/24 00:28:54;;;;;;;2.03;1.90;;;10.20;75.30;9.60;96319.00;;;;5117080;28;20193;-77
2022/04/24 00:31:23;;;;;;;1.40;1.40;;;10.30;75.50;9.80;96311.00;;;;5098871;28;20564;-75
2022/04/24 00:33:49;;;;;;;1.47;1.47;;;10.30;75.70;9.80;96302.00;;;;5098752;28;20194;-75
2022/04/24 00:36:16;;;;;;;1.50;1.50;;;10.40;75.90;9.80;96303.00;;;;5116682;28;20241;-76
2022/04/24 00:38:42;;;;;;;1.23;1.13;;;10.40;75.50;9.90;96291.00;;;;5116741;28;20289;-75
2022/04/24 00:41:09;;;;;;;1.80;1.70;;;10.40;75.60;9.90;96284.00;;;;5116528;28;20645;-76
2022/04/24 00:43:36;;;;;;;1.97;1.80;;;10.50;75.40;9.90;96286.00;;;;5117184;28;20289;-76
2022/04/24 00:46:22;;;;;;;1.50;1.50;;;10.50;74.90;9.90;96285.00;;;;5116431;28;20305;-75
2022/04/24 00:48:48;;;;;;;1.20;1.20;;;10.50;75.10;9.80;96288.00;;;;5116511;28;20311;-74
2022/04/24 00:51:15;;;;;;;1.67;1.57;;;10.50;75.20;9.90;96276.00;;;;5116770;28;20704;-75
2022/04/24 00:53:41;;;;;;;2.07;1.97;;;10.50;75.60;10.00;96286.00;;;;5098843;28;20229;-75
2022/04/24 00:56:10;;;;;;;1.30;1.30;;;10.60;75.20;10.00;96273.00;;;;5116403;28;20272;-75
2022/04/24 00:58:38;;;;;;;2.50;2.30;;;10.60;75.10;10.10;96283.00;;;;5116322;28;20308;-77
2022/04/24 01:01:07;;;;;;;1.10;1.10;;;10.70;75.00;10.10;96271.00;;;;5116504;28;20354;-74
2022/04/24 01:03:33;;;;;;;1.77;1.67;;;10.70;74.70;10.10;96266.00;;;;5116153;28;20618;-74
2022/04/24 01:06:00;;;;;;;1.47;1.37;;;10.80;75.00;10.20;96264.00;;;;5116471;28;20286;-74
2022/04/24 01:08:26;;;;;;;1.60;1.50;;;10.80;73.80;10.10;96273.00;;;;5115889;28;20201;-75
2022/04/24 01:10:53;;;;;;;2.33;1.30;;;10.80;74.00;10.30;96268.00;;;;5119044;28;20213;-75
2022/04/24 01:13:19;;;;;;;1.10;1.10;;;10.80;73.80;10.20;96278.00;;;;5116142;28;20240;-76
2022/04/24 01:15:47;;;;;;;1.57;1.47;;;10.80;73.50;10.30;96272.00;;;;5116099;28;20312;-76
2022/04/24 01:18:15;;;;;;;2.20;2.10;;;10.90;73.70;10.30;96265.00;;;;5116144;28;20228;-76
2022/04/24 01:20:43;;;;;;;2.53;2.20;;;10.90;73.50;10.30;96260.00;;;;5115913;28;20308;-75
2022/04/24 01:23:09;;;;;;;1.63;1.53;;;10.90;73.60;10.30;96258.00;;;;5116093;28;20221;-75
2022/04/24 01:25:37;;;;;;;2.00;1.90;;;11.00;73.60;10.30;96254.00;;;;5115884;28;20290;-75
2022/04/24 01:28:08;;;;;;;1.53;1.43;;;11.00;73.00;10.30;96258.00;;;;5117218;28;20296;-75
2022/04/24 01:30:35;;;;;;;1.70;1.60;;;11.00;73.00;10.30;96268.00;;;;5115886;28;20628;-74
2022/04/24 01:33:03;;;;;;;2.03;1.83;;;11.00;73.10;10.30;96271.00;;;;5115768;28;20593;-75
2022/04/24 01:35:29;;;;;;;1.13;1.10;;;11.00;72.80;10.40;96269.00;;;;5115781;28;20194;-75
2022/04/24 01:37:58;;;;;;;2.37;2.17;;;11.00;72.40;10.40;96278.00;;;;5115552;28;20298;-75
2022/04/24 01:40:25;;;;;;;1.20;1.17;;;11.00;72.50;10.40;96276.00;;;;5115898;28;20292;-75
2022/04/24 01:42:52;;;;;;;2.27;2.07;;;11.00;72.70;10.40;96267.00;;;;5115586;28;20716;-75
2022/04/24 01:45:19;;;;;;;1.90;1.80;;;11.10;72.70;10.50;96274.00;;;;5097820;28;20316;-76
2022/04/24 01:47:45;;;;;;;1.77;1.67;;;11.10;72.50;10.50;96278.00;;;;5115361;28;20222;-76
2022/04/24 01:50:12;;;;;;;1.03;1.03;;;11.10;72.60;10.50;96281.00;;;;5115558;28;20297;-75
2022/04/24 01:52:38;;;;;;;1.70;1.60;;;11.10;72.70;10.40;96280.00;;;;5115442;28;20586;-74
2022/04/24 01:55:06;;;;;;;1.07;1.07;;;11.10;73.20;10.50;96281.00;;;;5115452;28;20223;-75
2022/04/24 01:57:35;;;;;;;1.30;1.20;;;11.00;73.40;10.50;96287.00;;;;5115504;28;20276;-75
2022/04/24 02:00:02;;;;;;;1.40;1.40;;;11.10;73.20;10.50;96286.00;;;;5115280;28;20672;-76
2022/04/24 02:02:28;;;;;;;1.83;1.73;;;11.20;73.00;10.50;96279.00;;;;5115367;28;20281;-75
2022/04/24 02:04:55;;;;;;;1.20;1.07;;;11.10;72.90;10.60;96297.00;;;;5097305;28;20225;-76
2022/04/24 02:07:21;;;;;;;1.17;1.17;;;11.20;72.80;10.60;96304.00;;;;5115141;28;20242;-76
2022/04/24 02:09:48;;;;;;;1.70;1.60;;;11.20;72.70;10.60;96316.00;;;;5097693;28;20224;-76
2022/04/24 02:12:17;;;;;;;1.97;1.87;;;11.20;72.60;10.60;96283.00;;;;5115319;28;20193;-75
2022/04/24 02:14:44;;;;;;;1.43;1.33;;;11.20;72.40;10.60;96347.00;;;;5115314;28;20217;-76
2022/04/24 02:17:10;;;;;;;1.03;1.00;;;11.20;72.60;10.60;96346.00;;;;5115070;28;20515;-76
2022/04/24 02:19:39;;;;;;;2.33;2.23;;;11.20;73.10;10.50;96347.00;;;;5114508;28;20530;-76
2022/04/24 02:22:08;;;;;;;1.50;1.47;;;11.20;73.50;10.60;96351.00;;;;5097039;28;20283;-75
2022/04/24 02:24:37;;;;;;;0.90;0.90;;;11.20;74.20;10.60;96349.00;;;;5115041;28;20210;-75
2022/04/24 02:27:04;;;;;;;1.50;1.40;;;11.20;74.00;10.60;96351.00;;;;5114763;28;20218;-75
2022/04/24 02:29:33;;;;;;;3.00;1.80;;;11.20;74.20;10.70;96354.00;;;;5114952;28;20190;-75
2022/04/24 02:32:00;;;;;;;2.10;1.90;;;11.20;74.80;10.60;96359.00;;;;5097226;28;20250;-75
2022/04/24 02:34:26;;;;;;;2.93;2.73;;;11.30;74.50;10.60;96358.00;;;;5114873;28;20708;-76
2022/04/24 02:36:55;;;;;;;2.10;1.60;;;11.30;74.50;10.50;96365.00;;;;5114810;28;20232;-75
2022/04/24 02:39:21;;;;;;;2.13;2.00;;;11.20;74.40;10.60;96364.00;;;;5114649;28;20241;-76
2022/04/24 02:41:50;;;;;;;1.63;1.40;;;11.20;74.60;10.50;96368.00;;;;5096911;28;20202;-76
2022/04/24 02:44:17;;;;;;;1.50;1.40;;;11.10;75.40;10.40;96362.00;;;;5114660;28;20225;-74
2022/04/24 02:46:44;;;;;;;1.83;1.73;;;11.10;76.00;10.40;96365.00;;;;5114681;28;20366;-75
2022/04/24 02:49:10;;;;;;;2.20;1.63;;;11.00;76.30;10.30;96366.00;;;;5096663;28;20204;-75
2022/04/24 02:51:40;;;;;;;2.83;2.63;;;11.00;77.20;10.50;96374.00;;;;5097105;28;20605;-74
2022/04/24 02:54:07;;;;;;;2.07;1.60;;;11.00;78.10;10.40;96375.00;;;;5096535;28;20597;-75
2022/04/24 02:56:33;;;;;;;1.97;1.83;;;11.10;78.30;10.20;96373.00;;;;5114313;28;20232;-75
2022/04/24 02:59:00;;;;;;;1.73;1.63;;;10.90;78.90;10.30;96370.00;;;;5114514;28;20191;-75
2022/04/24 03:01:30;;;;;;;1.77;1.67;;;10.90;79.80;10.40;96359.00;;;;5114327;28;20214;-75
2022/04/24 03:03:59;;;;;;;1.70;1.57;;;11.00;81.70;10.50;96359.00;;;;5114367;28;20205;-75
2022/04/24 03:06:28;;;;;;;1.23;1.23;;;11.00;84.00;10.50;96362.00;;;;5114149;28;20229;-75
2022/04/24 03:08:57;;;;;;;2.30;1.97;;;11.10;86.10;10.50;96352.00;;;;5114368;28;20228;-73
2022/04/24 03:11:24;;;;;;;1.20;1.13;;;11.10;87.30;10.40;96353.00;;;;5114202;28;20635;-77
2022/04/24 03:13:50;;;;;;;2.90;2.60;;;11.10;87.60;10.30;96352.00;;;;5114306;28;20612;-75
2022/04/24 03:16:19;;;;;;;2.07;1.97;;;11.00;88.10;10.40;96350.00;;;;5114263;28;20281;-75
2022/04/24 03:18:45;;;;;;;2.27;1.90;;;11.00;88.50;10.40;96362.00;;;;5114187;28;20249;-76
2022/04/24 03:21:13;;;;;;;2.00;1.83;;;11.00;88.90;10.40;96340.00;;;;5114198;28;20288;-74
2022/04/24 03:23:39;;;;;;;1.67;1.57;;;11.00;89.80;10.30;96346.00;;;;5113908;28;20232;-74
2022/04/24 03:26:06;;;;;;;1.77;1.67;;;11.00;90.40;10.30;96348.00;;;;5113960;28;20190;-77
2022/04/24 03:28:33;;;;;;;3.83;2.63;;;11.00;90.90;10.30;96353.00;;;;5114199;28;20205;-74
2022/04/24 03:30:59;;;;;;;1.20;1.20;;;11.00;91.50;10.30;96354.00;;;;5096202;28;20205;-75
2022/04/24 03:33:29;;;;;;;1.33;1.33;;;11.00;92.10;10.30;96357.00;;;;5116781;28;20209;-75
2022/04/24 03:35:55;;;;;;;2.43;2.23;;;11.00;92.30;10.30;96349.00;;;;5117212;28;20242;-76
2022/04/24 03:38:23;;;;;;;2.03;1.93;;;10.90;92.30;10.40;96354.00;;;;5118396;28;20205;-75
2022/04/24 03:40:52;;;;;;;2.00;1.63;;;11.00;92.50;10.40;96365.00;;;;5120181;28;20660;-75
2022/04/24 03:43:18;;;;;;;1.47;1.37;;;11.00;92.80;10.40;96364.00;;;;5123938;28;20209;-75
2022/04/24 03:45:47;;;;;;;1.10;1.10;;;11.00;92.60;10.30;96367.00;;;;5100169;28;20602;-75
2022/04/24 03:48:13;;;;;;;1.90;1.80;;;11.00;92.20;10.40;96372.00;;;;5118105;28;20270;-74
2022/04/24 03:50:40;;;;;;;2.20;1.97;;;11.00;91.60;10.30;96372.00;;;;5117484;28;20198;-74
2022/04/24 03:53:07;;;;;;;2.00;1.00;;;10.90;91.30;10.30;96378.00;;;;5117412;28;20202;-75
2022/04/24 03:55:34;;;;;;;1.27;1.27;;;10.90;91.40;10.30;96382.00;;;;5117517;28;20637;-75
2022/04/24 03:58:03;;;;;;;1.27;1.27;;;10.90;91.70;10.30;96375.00;;;;5117351;28;20308;-74
2022/04/24 04:00:30;;;;;;;1.10;1.10;;;11.00;91.80;10.30;96366.00;;;;5117396;28;20222;-75
2022/04/24 04:02:56;;;;;;;1.37;1.37;;;11.00;91.80;10.40;96373.00;;;;5117206;28;20233;-77
2022/04/24 04:05:23;;;;;;;1.63;1.57;;;11.00;91.30;10.30;96373.00;;;;5117353;28;20209;-75
2022/04/24 04:07:50;;;;;;;1.03;1.03;;;10.90;91.30;10.20;96373.00;;;;5117133;28;20213;-74
2022/04/24 04:10:16;;;;;;;2.57;1.57;;;10.90;91.00;10.30;96372.00;;;;5117080;28;20244;-74
2022/04/24 04:12:44;;;;;;;1.90;1.80;;;10.80;91.30;10.30;96376.00;;;;5099112;28;20205;-74
2022/04/24 04:15:10;;;;;;;2.10;2.00;;;10.90;91.10;10.40;96371.00;;;;5116631;28;20246;-74
2022/04/24 04:17:37;;;;;;;2.07;1.97;;;10.90;91.30;10.30;96355.00;;;;5099026;28;20206;-74
2022/04/24 04:20:09;;;;;;;1.17;1.17;;;10.90;91.50;10.10;96369.00;;;;5116894;28;20296;-75
2022/04/24 04:22:51;;;;;;;1.77;1.70;;;10.80;89.90;9.90;96374.00;;;;5116992;28;20194;-74
2022/04/24 04:25:19;;;;;;;1.53;1.43;;;10.60;91.10;9.80;96380.00;;;;5116828;28;20222;-75
2022/04/24 04:27:47;;;;;;;2.17;1.97;;;10.50;91.50;9.90;96363.00;;;;5115877;28;20237;-75
2022/04/24 04:30:14;;;;;;;1.67;1.53;;;10.60;92.00;9.90;96371.00;;;;5116865;28;20288;-75
2022/04/24 04:32:42;;;;;;;1.50;1.50;;;10.60;92.50;10.10;96372.00;;;;5117122;28;20193;-75
2022/04/24 04:35:11;;;;;;;2.10;2.00;;;10.70;93.10;10.10;96372.00;;;;5116903;28;20285;-75
2022/04/24 04:37:40;;;;;;;2.27;1.50;;;10.80;93.50;10.20;96372.00;;;;5116671;28;20222;-73
2022/04/24 04:40:09;;;;;;;1.80;1.70;;;10.80;93.80;10.00;96388.00;;;;5116614;28;20714;-74
2022/04/24 04:42:35;;;;;;;1.50;1.40;;;10.70;93.70;9.90;96395.00;;;;5116152;28;20228;-74
2022/04/24 04:45:03;;;;;;;15.80;1.87;;;10.60;94.50;9.90;96406.00;;;;5116672;28;20322;-74
2022/04/24 04:47:31;;;;;;;1.80;1.70;;;10.60;95.00;9.70;96412.00;;;;5116635;28;20226;-75
2022/04/24 04:49:58;;;;;;;2.43;2.23;;;10.50;95.80;9.60;96428.00;;;;5116656;28;20209;-74
2022/04/24 04:52:25;;;;;;;1.10;1.10;;;10.40;96.00;9.70;96423.00;;;;5116679;28;20230;-74
2022/04/24 04:54:53;;;;;;;0.97;0.97;;;10.40;95.90;9.70;96446.00;;;;5116621;28;20213;-74
2022/04/24 04:57:20;;;;;;;1.67;1.57;;;10.30;96.60;9.80;96445.00;;;;5116463;28;20613;-74
2022/04/24 04:59:49;;;;;;;1.63;1.53;;;10.40;96.30;9.90;96447.00;;;;5116364;28;20245;-74
2022/04/24 05:02:16;;;;;;;1.70;1.60;;;10.50;96.60;9.70;96445.00;;;;5116444;28;20549;-74
2022/04/24 05:04:43;;;;;;;1.43;1.33;;;10.30;96.60;9.50;96454.00;;;;5098187;28;20225;-74
2022/04/24 05:07:10;;;;;;;2.17;1.10;;;10.20;97.00;9.20;96464.00;;;;5116114;28;20645;-74
2022/04/24 05:09:37;;;;;;;1.10;1.10;;;10.00;95.00;9.00;96456.00;;;;5098434;28;20201;-74
2022/04/24 05:12:08;;;;;;;1.37;1.27;;;9.70;95.50;8.90;96466.00;;;;5116146;28;20209;-74
2022/04/24 05:14:35;;;;;;;0.90;0.90;;;9.60;96.20;8.70;96464.00;;;;5116133;28;20224;-74
2022/04/24 05:17:01;;;;;;;0.60;0.60;;;9.50;97.60;8.70;96462.00;;;;5116187;28;20649;-74
2022/04/24 05:19:29;;;;;;;0.50;0.50;;;9.40;97.60;8.50;96469.00;;;;5116192;28;20202;-73
2022/04/24 05:21:55;;;;;;;0.90;0.90;;;9.30;97.50;8.50;96476.00;;;;5116000;28;20222;-74
2022/04/24 05:24:24;;;;;;;0.53;0.53;;;9.20;97.00;8.50;96475.00;;;;5115865;28;20625;-75
2022/04/24 05:26:51;;;;;;;0.50;0.50;;;9.20;95.00;8.60;96469.00;;;;5115736;28;20305;-75
2022/04/24 05:29:19;;;;;;;0.50;0.50;;;9.20;95.10;8.40;96470.00;;;;5115794;28;20225;-74
2022/04/24 05:31:46;;;;;;;0.53;0.53;;;9.10;93.50;8.10;96461.00;;;;5115755;28;20269;-75
2022/04/24 05:34:12;;;;;;;1.10;0.80;;;9.00;94.60;8.10;96471.00;;;;5115815;28;20198;-74
2022/04/24 05:36:42;;;;;;;3.60;1.23;;;8.90;94.70;7.90;96480.00;;;;5115727;28;20682;-74
2022/04/24 05:39:08;;;;;;;0.50;0.50;;;8.70;93.10;7.90;96494.00;;;;5115640;28;20252;-74
2022/04/24 05:41:34;;;;;;;0.50;0.50;;;8.60;95.30;7.90;96484.00;;;;5115779;28;20194;-75
2022/04/24 05:44:01;;;;;;;0.50;0.50;;;8.60;94.50;7.90;96484.00;;;;5115598;28;20273;-76
2022/04/24 05:46:28;;;;;;;0.50;0.50;;;;;7.90;96495.00;;;;5115624;28;20242;-75
2022/04/24 05:48:56;;;;;;;0.53;0.53;;;8.60;95.40;8.00;96496.00;;;;5115496;28;20633;-75
2022/04/24 05:51:24;;;;;;;0.50;0.50;;;8.60;96.80;8.00;96498.00;;;;5115481;28;20196;-75
2022/04/24 05:53:52;;;;;;;0.60;0.60;;;8.70;94.80;7.70;96501.00;;;;5115414;28;20297;-75
2022/04/24 05:56:18;;;;;;;0.50;0.50;;;8.50;96.00;7.50;96495.00;;;;5114424;28;20221;-75
2022/04/24 05:58:45;;;;;;;0.50;0.50;;;8.30;99.20;7.70;96488.00;;;;5115380;28;20204;-73
2022/04/24 06:01:12;;;;;;;0.47;0.47;;;8.40;97.10;7.70;96497.00;;;;5115234;28;20621;-74
2022/04/24 06:03:40;;;;;;;0.60;0.60;;;8.30;97.90;7.70;96493.00;;;;5115380;28;20284;-75
2022/04/24 06:06:07;;;;;;;0.50;0.50;;;8.40;97.50;7.60;96505.00;;;;5115330;28;20193;-75
2022/04/24 06:08:34;;;;;;;0.50;0.50;;;8.30;97.90;7.60;96495.00;;;;5115297;28;20266;-75
2022/04/24 06:11:01;;;;;;;0.53;0.53;;;8.30;97.40;7.40;96499.00;;;;5097558;28;20623;-75
2022/04/24 06:13:28;;;;;;;0.60;0.60;;;8.20;98.60;7.50;96499.00;;;;5115078;28;20203;-75
2022/04/24 06:15:57;;;;;;;0.40;0.40;;;;;7.50;96501.00;;;;5115041;28;20200;-76
2022/04/24 06:18:27;;;;;;;0.60;0.60;;;8.20;99.90;7.60;96510.00;;;;5114980;28;20252;-76
2022/04/24 06:20:54;;;;;;;0.50;0.50;;;8.20;99.90;7.70;96504.00;;;;5115241;28;20297;-76
2022/04/24 06:23:21;;;;;;;0.50;0.50;;;8.30;98.60;7.60;96510.00;;;;5114905;28;20298;-76
2022/04/24 06:25:47;;;;;;;0.57;0.57;;;8.30;97.90;7.70;96513.00;;;;5097107;28;20198;-75
2022/04/24 06:28:15;;;;;;;0.50;0.50;;;8.30;98.30;7.50;96515.00;;;;5114811;28;20210;-75
2022/04/24 06:30:41;;;;;;;0.60;0.60;;;8.30;99.30;7.50;96508.00;;;;5114972;28;20221;-76
2022/04/24 06:33:11;;;;;;;0.50;0.50;;;8.30;99.70;7.50;96507.00;;;;5114920;28;20193;-76
2022/04/24 06:35:39;;;;;;;0.50;0.50;;;8.30;98.70;7.50;96513.00;;;;5114611;28;20259;-75
2022/04/24 06:38:06;;;;;;;0.60;0.60;;;8.20;99.90;7.50;96513.00;;;;5114712;28;20286;-75
2022/04/24 06:40:33;;;;;;;0.60;0.60;;;8.20;99.90;7.60;96510.00;;;;5114667;28;20224;-75
2022/04/24 06:43:01;;;;;;;0.50;0.50;;;8.30;99.70;7.60;96516.00;;;;5114700;28;20218;-75
2022/04/24 06:45:30;;;;;;;0.50;0.50;;;8.30;99.90;7.70;96502.00;;;;5114658;28;20298;-75
2022/04/24 06:47:59;;;;;;;0.50;0.50;;;8.40;99.90;7.80;96516.00;;;;5114578;28;20672;-75
2022/04/24 06:50:28;;;;;;;0.67;0.67;;;8.40;98.90;7.60;96508.00;;;;5114555;28;20521;-75
2022/04/24 06:52:59;;;;;;;0.50;0.50;;;8.30;99.90;7.70;96506.00;;;;5114412;28;20209;-76
2022/04/24 06:55:26;;;;;;;0.50;0.50;;;8.40;99.90;7.80;96509.00;;;;5114446;28;20676;-75
2022/04/24 06:57:56;;;;;;;0.47;0.47;;;8.40;99.40;7.70;96505.00;;;;5114345;28;20312;-76
2022/04/24 07:00:25;;;;;;;0.60;0.60;;;8.40;99.50;7.60;96513.00;;;;5114821;28;20197;-75
2022/04/24 07:02:52;;;;;;;0.57;0.57;;;8.40;99.90;7.70;96508.00;;;;5114324;28;20222;-75
2022/04/24 07:05:21;;;;;;;0.40;0.40;;;8.40;99.90;7.80;96511.00;;;;5115055;28;20236;-75
2022/04/24 07:07:51;;;;;;;0.60;0.60;;;8.50;99.90;7.80;96520.00;;;;5114124;28;20226;-76
2022/04/24 07:10:18;;;;;;;0.50;0.50;;;8.50;98.40;7.90;96506.00;;;;5114525;28;20197;-76
2022/04/24 07:12:47;;;;;;;0.50;0.50;;;8.60;98.50;8.10;96521.00;;;;5114173;28;20628;-75
2022/04/24 07:15:17;;;;;;;0.50;0.50;;;8.70;97.90;8.10;96521.00;;;;5114198;28;20197;-74
2022/04/24 07:17:46;;;;;;;0.50;0.50;;;8.70;97.70;8.20;96528.00;;;;5114188;28;20208;-75
2022/04/24 07:20:18;;;;;;;0.60;0.60;;;8.80;97.50;8.30;96528.00;;;;5114134;28;20225;-75
2022/04/24 07:22:47;;;;;;;0.50;0.50;;;8.90;96.70;8.30;96533.00;;;;5114250;28;20205;-75
2022/04/24 07:25:15;;;;;;;0.50;0.50;;;8.90;97.10;8.30;96531.00;;;;5114001;28;20252;-75
2022/04/24 07:27:41;;;;;;;0.50;0.50;;;8.90;96.40;8.20;96542.00;;;;5113913;28;20290;-75
2022/04/24 07:30:13;;;;;;;0.60;0.60;;;8.90;97.60;8.30;96506.00;;;;5114092;28;20217;-75
2022/04/24 07:32:42;;;;;;;0.40;0.40;;;9.00;97.10;8.30;96547.00;;;;5114189;28;20198;-76
2022/04/24 07:35:14;;;;;;;0.50;0.50;;;9.00;97.50;8.00;96549.00;;;;5118338;28;20278;-77
2022/04/24 07:37:44;;;;;;;0.50;0.50;;;8.90;98.30;8.00;96544.00;;;;5120142;28;20197;-76
2022/04/24 07:40:16;;;;;;;0.60;0.60;;;8.70;97.90;8.10;96544.00;;;;5114490;28;20205;-75
2022/04/24 07:42:48;;;;;;;0.60;0.60;;;8.80;98.40;8.10;96537.00;;;;5114241;28;20235;-76
2022/04/24 07:45:23;;;;;;;0.50;0.50;;;8.80;99.30;8.00;96545.00;;;;5114065;28;20521;-76
2022/04/24 07:47:52;;;;;;;0.50;0.50;;;8.70;99.70;8.00;96549.00;;;;5113819;28;20305;-75
2022/04/24 07:50:22;;;;;;;0.60;0.60;;;8.70;99.50;8.00;96543.00;;;;5095819;28;20644;-75
2022/04/24 07:52:53;;;;;;;0.93;0.93;;;8.70;99.90;8.10;96557.00;;;;5113754;28;20226;-75
2022/04/24 07:55:23;;;;;;;0.47;0.47;;;8.70;99.90;7.90;96562.00;;;;5113757;28;20212;-76
2022/04/24 07:57:53;;;;;;;0.50;0.50;;;8.70;99.80;8.20;96570.00;;;;5113737;28;20197;-76
2022/04/24 08:00:23;;;;;;;0.50;0.50;;;8.80;99.90;8.10;96569.00;;;;5113702;28;20206;-75
2022/04/24 08:02:54;;;;;;;0.50;0.50;;;8.70;99.90;8.10;96560.00;;;;5113707;28;20213;-76
2022/04/24 08:05:24;;;;;;;0.60;0.60;;;8.80;99.90;8.10;96552.00;;;;5095695;28;20329;-74
2022/04/24 08:07:51;;;;;;;0.50;0.50;;;8.80;99.90;8.20;96549.00;;;;5113445;28;20225;-76
2022/04/24 08:10:18;;;;;;;0.90;0.90;;;8.80;99.90;8.10;96545.00;;;;5113405;28;20214;-76
2022/04/24 08:12:49;;;;;;;0.57;0.57;;;8.80;99.90;8.10;96549.00;;;;5096091;28;20247;-75
2022/04/24 08:15:17;;;;;;;0.70;0.70;;;8.80;99.90;8.10;96553.00;;;;5113312;28;20221;-77
2022/04/24 08:17:44;;;;;;;0.60;0.60;;;8.80;99.90;8.20;96547.00;;;;5113954;28;20240;-76
2022/04/24 08:20:14;;;;;;;0.50;0.50;;;8.80;99.90;8.40;96544.00;;;;5117624;28;20202;-76
2022/04/24 08:22:44;;;;;;;0.50;0.50;;;9.00;99.90;8.30;96560.00;;;;5116952;28;20222;-76
2022/04/24 08:25:13;;;;;;;0.50;0.50;;;9.00;99.60;8.40;96561.00;;;;5116845;28;20276;-76
2022/04/24 08:27:39;;;;;;;0.50;0.50;;;9.00;99.90;8.30;96563.00;;;;5116455;28;20348;-76
2022/04/24 08:30:12;;;;;;;0.77;0.77;;;9.00;99.80;8.50;96567.00;;;;5117025;28;20202;-76
2022/04/24 08:32:43;;;;;;;0.63;0.63;;;9.10;99.50;8.40;96563.00;;;;5116774;28;20653;-76
2022/04/24 08:35:12;;;;;;;0.50;0.50;;;9.10;99.90;8.40;96564.00;;;;5116767;28;20202;-77
2022/04/24 08:37:44;;;;;;;0.50;0.50;;;9.10;99.90;8.40;96574.00;;;;5116788;28;20194;-75
2022/04/24 08:40:15;;;;;;;0.50;0.50;;;9.10;99.90;8.50;96570.00;;;;5116814;28;20201;-77
2022/04/24 08:42:42;;;;;;;0.50;0.50;;;9.10;99.90;8.70;96560.00;;;;5116843;28;20285;-76
2022/04/24 08:45:12;;;;;;;0.77;0.77;;;9.30;99.20;8.70;96566.00;;;;5116647;28;20198;-76
2022/04/24 08:47:39;;;;;;;0.50;0.50;;;9.30;98.70;8.50;96577.00;;;;5098599;28;20274;-76
2022/04/24 08:50:07;;;;;;;0.50;0.50;;;9.30;98.70;8.40;96577.00;;;;5116517;28;20214;-76
2022/04/24 08:52:34;;;;;;;0.80;0.80;;;9.10;99.00;8.60;96572.00;;;;5116467;28;20285;-76
2022/04/24 08:55:03;;;;;;;0.60;0.60;;;9.20;99.90;8.50;96574.00;;;;5116380;28;20221;-76
2022/04/24 08:57:30;;;;;;;0.60;0.60;;;9.10;99.90;8.40;96560.00;;;;5098380;28;20344;-76
2022/04/24 08:59:58;;;;;;;0.80;0.80;;;9.10;99.90;8.50;96587.00;;;;5116241;28;20202;-76
2022/04/24 09:02:25;;;;;;;1.20;1.13;;;9.20;99.90;8.70;96582.00;;;;5116493;28;20592;-76
2022/04/24 09:04:53;;;;;;;0.67;0.67;;;9.30;99.90;8.50;96590.00;;;;5116357;28;20190;-76
2022/04/24 09:07:21;;;;;;;0.50;0.50;;;9.30;99.90;8.70;96570.00;;;;5116061;28;20569;-75
2022/04/24 09:09:50;;;;;;;0.50;0.50;;;9.30;99.90;8.60;96604.00;;;;5116266;28;20706;-75
2022/04/24 09:12:23;;;;;;;0.60;0.60;;;9.30;99.90;8.60;96604.00;;;;5116007;28;20285;-75
2022/04/24 09:14:51;;;;;;;0.60;0.60;;;9.30;99.90;8.70;96603.00;;;;5116290;28;20610;-75
2022/04/24 09:17:20;;;;;;;0.53;0.53;;;9.30;99.90;8.70;96605.00;;;;5115978;28;20256;-75
2022/04/24 09:19:47;;;;;;;0.70;0.70;;;9.40;99.90;8.80;96607.00;;;;5116768;28;20229;-75
2022/04/24 09:22:14;;;;;;;0.60;0.60;;;9.40;99.90;8.90;96611.00;;;;5115925;28;20304;-75
2022/04/24 09:24:45;;;;;;;0.50;0.50;;;9.50;99.90;9.00;96611.00;;;;5116259;28;20235;-75
2022/04/24 09:27:23;;;;;;;0.47;0.47;;;9.50;99.90;9.10;96613.00;;;;5115920;28;20225;-75
2022/04/24 09:29:54;;;;;;;0.73;0.73;;;9.60;99.90;9.10;96618.00;;;;5115932;28;20308;-75
2022/04/24 09:32:22;;;;;;;0.77;0.77;;;9.70;99.90;9.10;96606.00;;;;5115999;28;20220;-75
2022/04/24 09:34:50;;;;;;;0.57;0.57;;;9.70;99.90;9.10;96613.00;;;;5098053;28;20234;-75
2022/04/24 09:37:20;;;;;;;0.67;0.67;;;9.80;99.90;9.10;96618.00;;;;5115613;28;20202;-75
2022/04/24 09:39:48;;;;;;;0.70;0.70;;;9.80;99.90;9.30;96616.00;;;;5115981;28;20218;-73
2022/04/24 09:42:17;;;;;;;0.83;0.83;;;9.80;99.90;9.20;96626.00;;;;5115562;28;20660;-73
2022/04/24 09:44:50;;;;;;;0.60;0.60;;;9.80;99.90;9.20;96610.00;;;;5115478;28;20556;-73
2022/04/24 09:47:22;;;;;;;0.50;0.50;;;9.80;99.90;9.10;96632.00;;;;5115657;28;20308;-76
2022/04/24 09:49:50;;;;;;;0.50;0.50;;;9.70;99.20;9.20;96635.00;;;;5115593;28;20233;-77
2022/04/24 09:52:22;;;;;;;0.60;0.60;;;9.80;99.00;9.10;96645.00;;;;5115515;28;20535;-77
2022/04/24 09:54:53;;;;;;;0.50;0.50;;;9.80;99.90;9.10;96645.00;;;;5115602;28;20269;-77
2022/04/24 09:57:24;;;;;;;0.60;0.60;;;9.70;99.90;9.10;96645.00;;;;5115484;28;20197;-78
2022/04/24 09:59:52;;;;;;;0.50;0.50;;;9.70;99.90;8.90;96640.00;;;;5115628;28;20190;-75
2022/04/24 10:02:21;;;;;;;0.50;0.50;;;9.60;99.90;8.90;96648.00;;;;5115402;28;20282;-73
2022/04/24 10:04:50;;;;;;;0.50;0.50;;;9.60;99.90;9.00;96653.00;;;;5116547;28;20202;-73
2022/04/24 10:07:19;;;;;;;0.80;0.80;;;9.60;99.90;9.10;96650.00;;;;5115473;28;20230;-72
2022/04/24 10:09:47;;;;;;;0.50;0.50;;;9.70;99.90;9.10;96641.00;;;;5115278;28;20198;-75
2022/04/24 10:12:18;;;;;;;0.60;0.60;;;9.70;99.90;8.90;96660.00;;;;5115150;28;20228;-75
2022/04/24 10:14:52;;;;;;;0.50;0.50;;;9.70;99.90;9.10;96652.00;;;;5115256;28;20652;-74
2022/04/24 10:17:54;;;;;;;0.50;0.50;;;9.70;99.90;9.10;96655.00;;;;5115105;28;20221;-75
2022/04/24 10:20:51;;;;;;;0.50;0.50;;;9.70;99.90;9.10;96651.00;;;;5101261;28;20252;-75
2022/04/24 10:23:28;;;;;;;0.73;0.73;;;9.70;99.90;9.10;96640.00;;;;5102402;28;20301;-75
2022/04/24 10:25:55;;;;;;;0.50;0.50;;;9.80;99.90;9.20;96650.00;;;;5115062;28;20193;-74
2022/04/24 10:28:22;;;;;;;0.50;0.50;;;9.80;99.90;9.20;96657.00;;;;5114888;28;20229;-74
2022/04/24 10:31:03;;;;;;;0.50;0.50;;;9.80;99.90;9.30;96657.00;;;;5114983;28;20220;-75
2022/04/24 10:33:32;;;;;;;2.00;0.60;;;9.90;99.90;9.30;96659.00;;;;5114841;28;20190;-75
2022/04/24 10:36:04;;;;;;;0.50;0.50;;;9.90;99.90;9.20;96652.00;;;;5114906;28;20190;-74
2022/04/24 10:38:34;;;;;;;0.60;0.60;;;9.90;99.90;9.20;96656.00;;;;5116037;28;20214;-74
2022/04/24 10:41:03;;;;;;;0.70;0.70;;;9.90;99.90;9.20;96636.00;;;;5114280;28;20290;-75
2022/04/24 10:43:39;;;;;;;0.80;0.80;;;9.80;99.90;9.30;96662.00;;;;5114661;28;20190;-75
2022/04/24 10:46:20;;;;;;;0.77;0.77;;;9.90;99.90;9.20;96658.00;;;;5114637;28;20288;-75
2022/04/24 10:48:49;;;;;;;0.80;0.80;;;9.90;99.90;9.30;96662.00;;;;5096824;28;20240;-76
2022/04/24 10:51:28;;;;;;;0.70;0.70;;;9.90;99.90;9.50;96654.00;;;;5114525;28;20219;-75
2022/04/24 10:54:00;;;;;;;0.60;0.60;;;10.10;99.90;9.50;96660.00;;;;5114498;28;20241;-75
2022/04/24 10:56:29;;;;;;;0.60;0.60;;;10.10;99.90;9.60;96664.00;;;;5114648;28;20201;-74
2022/04/24 10:59:07;;;;;;;0.53;0.53;;;10.10;99.90;9.60;96665.00;;;;5114306;28;20672;-74
2022/04/24 11:01:35;;;;;;;0.67;0.67;;;10.20;99.90;9.50;96664.00;;;;5114488;28;20209;-76
2022/04/24 11:04:06;;;;;;;0.50;0.50;;;10.20;99.90;9.40;96673.00;;;;5114350;28;20225;-74
2022/04/24 11:06:34;;;;;;;0.63;0.63;;;10.10;99.90;9.80;96666.00;;;;5114304;28;20498;-74
2022/04/24 11:09:10;;;;;;;0.60;0.60;;;10.30;99.90;9.70;96680.00;;;;5096225;28;20237;-74
2022/04/24 11:11:46;;;;;;;0.57;0.57;;;10.30;99.90;9.70;96680.00;;;;5114377;28;20359;-74